| time (UTC) | temp C | wind direction | speed KPH | gust KPH | rain 1hr cm | rain 24hr cm | rain mn cm | humidity % | barometer mb |
| 20260507080059 | 10 | 0 | 0.0 | 3.2 | 0.20 | 1.22 | 0.76 | 92 | 1010.5 |
| 20260507075549 | 10 | 0 | 0.0 | 0.0 | 0.20 | 1.22 | 0.76 | 92 | 1010.6 |
| 20260507075050 | 10 | 0 | 0.0 | 3.2 | 0.20 | 1.22 | 0.76 | 92 | 1010.4 |
| 20260507074600 | 10 | 0 | 0.0 | 3.2 | 0.20 | 1.22 | 0.76 | 92 | 1010.3 |
| 20260507074050 | 10 | 0 | 0.0 | 1.6 | 0.20 | 1.22 | 0.76 | 91 | 1010.2 |
| 20260507073549 | 10 | 333 | 0.0 | 1.6 | 0.23 | 1.22 | 0.76 | 91 | 1010.4 |
| 20260507073100 | 10 | 0 | 0.0 | 1.6 | 0.23 | 1.22 | 0.76 | 91 | 1010.7 |
| 20260507072550 | 10 | 0 | 0.0 | 8.0 | 0.23 | 1.22 | 0.76 | 91 | 1010.6 |
| 20260507072050 | 10 | 0 | 0.0 | 8.0 | 0.23 | 1.22 | 0.76 | 90 | 1010.7 |
| 20260507071557 | 11 | 338 | 1.6 | 8.0 | 0.20 | 1.19 | 0.74 | 90 | 1010.8 |
| 20260507071050 | 11 | 343 | 0.0 | 6.4 | 0.05 | 1.04 | 0.58 | 90 | 1011.0 |
| 20260507070551 | 11 | 0 | 1.6 | 6.4 | 0.03 | 1.02 | 0.56 | 90 | 1010.8 |
| 20260507070103 | 11 | 320 | 1.6 | 6.4 | 0.03 | 1.02 | 0.56 | 91 | 1010.7 |
| 20260507065550 | 11 | 343 | 1.6 | 6.4 | 0.03 | 1.02 | 0.56 | 91 | 1010.8 |
| 20260507065049 | 11 | 336 | 0.0 | 4.8 | 0.03 | 1.02 | 0.56 | 91 | 1010.9 |
| 20260507064552 | 11 | 0 | 1.6 | 4.8 | 0.03 | 1.02 | 0.56 | 91 | 1010.7 |
| 20260507064050 | 11 | 0 | 0.0 | 4.8 | 0.03 | 1.02 | 0.56 | 91 | 1010.7 |
| 20260507063550 | 11 | 0 | 0.0 | 4.8 | 0.00 | 0.99 | 0.53 | 91 | 1010.8 |
| 20260507063055 | 11 | 0 | 0.0 | 3.2 | 0.00 | 0.99 | 0.53 | 91 | 1010.8 |
| 20260507062549 | 11 | 0 | 0.0 | 1.6 | 0.00 | 0.99 | 0.53 | 91 | 1010.7 |
| 20260507062049 | 11 | 0 | 0.0 | 1.6 | 0.00 | 0.99 | 0.53 | 91 | 1010.8 |
| 20260507061554 | 11 | 0 | 0.0 | 1.6 | 0.00 | 0.99 | 0.53 | 91 | 1010.8 |
| 20260507061049 | 11 | 0 | 0.0 | 1.6 | 0.03 | 0.99 | 0.53 | 91 | 1010.8 |
| 20260507060552 | 11 | 0 | 0.0 | 3.2 | 0.03 | 0.99 | 0.53 | 90 | 1010.9 |
| 20260507060105 | 11 | 0 | 0.0 | 3.2 | 0.08 | 0.99 | 0.53 | 90 | 1010.8 |
| 20260507055553 | 11 | 331 | 0.0 | 1.6 | 0.08 | 0.99 | 0.53 | 90 | 1010.9 |
| 20260507055050 | 11 | 0 | 0.0 | 0.0 | 0.08 | 0.99 | 0.53 | 90 | 1011.0 |
| 20260507054557 | 11 | 0 | 0.0 | 1.6 | 0.10 | 0.99 | 0.53 | 90 | 1010.9 |
| 20260507054051 | 11 | 0 | 0.0 | 3.2 | 0.18 | 0.99 | 0.53 | 90 | 1010.6 |
| 20260507053550 | 12 | 359 | 0.0 | 4.8 | 0.33 | 0.99 | 0.53 | 90 | 1010.5 |
| 20260507053055 | 12 | 313 | 0.0 | 8.0 | 0.46 | 0.99 | 0.53 | 90 | 1010.8 |
| 20260507052549 | 12 | 335 | 3.2 | 8.0 | 0.51 | 0.99 | 0.53 | 90 | 1010.7 |
| 20260507052050 | 12 | 316 | 1.6 | 4.8 | 0.51 | 0.99 | 0.53 | 90 | 1010.9 |
| 20260507051557 | 12 | 299 | 0.0 | 4.8 | 0.53 | 0.99 | 0.53 | 90 | 1010.8 |
| 20260507051051 | 12 | 0 | 0.0 | 0.0 | 0.51 | 0.97 | 0.51 | 90 | 1010.8 |
| 20260507050549 | 12 | 0 | 0.0 | 0.0 | 0.51 | 0.97 | 0.51 | 90 | 1011.0 |
| 20260507050057 | 12 | 0 | 0.0 | 1.6 | 0.46 | 0.91 | 0.46 | 90 | 1011.3 |
| 20260507045553 | 12 | 0 | 0.0 | 6.4 | 0.46 | 0.91 | 0.46 | 89 | 1010.9 |
| 20260507045049 | 13 | 322 | 0.0 | 6.4 | 0.46 | 0.91 | 0.46 | 89 | 1011.0 |
| 20260507044601 | 13 | 336 | 1.6 | 6.4 | 0.43 | 0.89 | 0.43 | 88 | 1011.0 |
| 20260507044050 | 13 | 0 | 0.0 | 4.8 | 0.33 | 0.79 | 0.33 | 88 | 1011.1 |
| 20260507043549 | 13 | 0 | 0.0 | 3.2 | 0.18 | 0.64 | 0.18 | 87 | 1010.5 |
| 20260507043105 | 14 | 0 | 0.0 | 3.2 | 0.08 | 0.53 | 0.08 | 86 | 1010.4 |
| 20260507042549 | 14 | 0 | 0.0 | 3.2 | 0.03 | 0.48 | 0.03 | 86 | 1010.5 |
| 20260507042053 | 14 | 321 | 0.0 | 3.2 | 0.03 | 0.48 | 0.03 | 85 | 1010.3 |
| 20260507041555 | 14 | 0 | 0.0 | 1.6 | 0.00 | 0.46 | 0.00 | 85 | 1010.4 |
| 20260507041052 | 15 | 0 | 0.0 | 3.2 | 0.00 | 0.46 | 0.00 | 84 | 1010.5 |
| 20260507040550 | 15 | 0 | 0.0 | 3.2 | 0.00 | 0.46 | 0.00 | 84 | 1010.4 |
| 20260507040103 | 15 | 0 | 0.0 | 3.2 | 0.00 | 0.46 | 0.00 | 83 | 1010.3 |
| 20260507035549 | 15 | 324 | 0.0 | 3.2 | 0.00 | 0.46 | 0.46 | 83 | 1010.1 |
| 20260507035050 | 15 | 331 | 0.0 | 8.0 | 0.00 | 0.46 | 0.46 | 83 | 1010.1 |
| 20260507034559 | 15 | 337 | 0.0 | 8.0 | 0.00 | 0.46 | 0.46 | 82 | 1010.1 |
| 20260507034049 | 15 | 317 | 1.6 | 8.0 | 0.00 | 0.46 | 0.46 | 82 | 1009.9 |
| 20260507033552 | 15 | 0 | 0.0 | 3.2 | 0.00 | 0.46 | 0.46 | 82 | 1010.0 |
| 20260507033058 | 15 | 0 | 0.0 | 3.2 | 0.00 | 0.46 | 0.46 | 82 | 1010.2 |
| 20260507032550 | 16 | 0 | 0.0 | 4.8 | 0.00 | 0.46 | 0.46 | 82 | 1010.3 |
| 20260507032052 | 16 | 320 | 1.6 | 6.4 | 0.00 | 0.46 | 0.46 | 81 | 1010.2 |
| 20260507031557 | 16 | 0 | 1.6 | 6.4 | 0.00 | 0.46 | 0.46 | 82 | 1010.0 |
| 20260507031052 | 16 | 0 | 3.2 | 6.4 | 0.00 | 0.46 | 0.46 | 82 | 1009.9 |
| 20260507030550 | 16 | 324 | 1.6 | 6.4 | 0.00 | 0.46 | 0.46 | 83 | 1009.6 |
| 20260507030054 | 16 | 323 | 1.6 | 4.8 | 0.00 | 0.46 | 0.46 | 84 | 1009.4 |
| 20260507025552 | 16 | 0 | 0.0 | 4.8 | 0.00 | 0.46 | 0.46 | 85 | 1009.7 |
| 20260507025050 | 16 | 0 | 0.0 | 4.8 | 0.00 | 0.46 | 0.46 | 86 | 1009.7 |
| 20260507024558 | 16 | 0 | 1.6 | 4.8 | 0.00 | 0.46 | 0.46 | 85 | 1009.7 |
| 20260507024052 | 16 | 0 | 0.0 | 1.6 | 0.00 | 0.46 | 0.46 | 86 | 1009.8 |
| 20260507023549 | 16 | 0 | 0.0 | 1.6 | 0.00 | 0.46 | 0.46 | 86 | 1009.4 |
| 20260507023054 | 16 | 0 | 0.0 | 3.2 | 0.00 | 0.46 | 0.46 | 86 | 1009.4 |
| 20260507022550 | 17 | 0 | 0.0 | 3.2 | 0.00 | 0.46 | 0.46 | 86 | 1009.4 |
| 20260507022050 | 17 | 313 | 0.0 | 3.2 | 0.00 | 0.46 | 0.46 | 86 | 1009.5 |
| 20260507021558 | 17 | 0 | 0.0 | 4.8 | 0.00 | 0.46 | 0.46 | 86 | 1009.5 |
| 20260507021049 | 17 | 0 | 0.0 | 4.8 | 0.00 | 0.46 | 0.46 | 86 | 1009.7 |
| 20260507020554 | 17 | 319 | 0.0 | 3.2 | 0.00 | 0.46 | 0.46 | 87 | 1009.4 |
| 20260507020056 | 17 | 0 | 0.0 | 3.2 | 0.00 | 0.46 | 0.46 | 87 | 1009.2 |
| 20260507015549 | 17 | 0 | 0.0 | 1.6 | 0.00 | 0.46 | 0.46 | 87 | 1009.2 |
| 20260507015049 | 17 | 0 | 0.0 | 1.6 | 0.00 | 0.46 | 0.46 | 88 | 1009.4 |
| 20260507014556 | 17 | 0 | 0.0 | 1.6 | 0.00 | 0.46 | 0.46 | 88 | 1009.5 |
| 20260507014050 | 17 | 0 | 0.0 | 3.2 | 0.00 | 0.46 | 0.46 | 88 | 1009.6 |
| 20260507013553 | 17 | 0 | 0.0 | 3.2 | 0.00 | 0.46 | 0.46 | 88 | 1009.5 |
| 20260507013053 | 17 | 329 | 0.0 | 3.2 | 0.00 | 0.46 | 0.46 | 88 | 1009.6 |
| 20260507012553 | 18 | 0 | 0.0 | 3.2 | 0.00 | 0.46 | 0.46 | 88 | 1009.6 |
| 20260507012050 | 18 | 321 | 0.0 | 1.6 | 0.00 | 0.46 | 0.46 | 88 | 1009.5 |
| 20260507011553 | 18 | 0 | 0.0 | 4.8 | 0.00 | 0.46 | 0.46 | 87 | 1009.5 |
| 20260507011051 | 18 | 298 | 0.0 | 4.8 | 0.00 | 0.46 | 0.46 | 87 | 1009.6 |
| 20260507010550 | 18 | 0 | 0.0 | 3.2 | 0.00 | 0.46 | 0.46 | 86 | 1009.2 |
| 20260507010111 | 18 | 329 | 0.0 | 3.2 | 0.00 | 0.46 | 0.46 | 87 | 1009.2 |
| 20260507005550 | 18 | 0 | 0.0 | 0.0 | 0.00 | 0.46 | 0.46 | 87 | 1009.4 |
| 20260507005051 | 18 | 0 | 0.0 | 0.0 | 0.00 | 0.46 | 0.46 | 86 | 1009.3 |
| 20260507004550 | 18 | 0 | 0.0 | 0.0 | 0.00 | 0.46 | 0.46 | 86 | 1009.3 |
| 20260507004049 | 18 | 0 | 0.0 | 0.0 | 0.00 | 0.46 | 0.46 | 85 | 1009.0 |
| 20260507003552 | 18 | 0 | 0.0 | 0.0 | 0.00 | 0.46 | 0.46 | 85 | 1008.8 |
| 20260507003053 | 18 | 0 | 0.0 | 1.6 | 0.00 | 0.46 | 0.46 | 85 | 1008.6 |
| 20260507002549 | 18 | 333 | 0.0 | 1.6 | 0.00 | 0.46 | 0.46 | 85 | 1008.7 |
| 20260507002050 | 18 | 333 | 0.0 | 1.6 | 0.00 | 0.46 | 0.46 | 85 | 1008.6 |
| 20260507001559 | 19 | 0 | 0.0 | 1.6 | 0.00 | 0.46 | 0.46 | 84 | 1008.5 |
| 20260507001049 | 19 | 0 | 0.0 | 1.6 | 0.00 | 0.46 | 0.46 | 84 | 1008.5 |
| 20260507000552 | 19 | 0 | 0.0 | 1.6 | 0.00 | 0.46 | 0.46 | 84 | 1008.5 |
| 20260507000056 | 19 | 0 | 0.0 | 4.8 | 0.00 | 0.46 | 0.46 | 84 | 1008.5 |
| 20260506235550 | 19 | 0 | 0.0 | 4.8 | 0.00 | 0.46 | 0.46 | 84 | 1008.3 |
| 20260506235049 | 19 | 0 | 0.0 | 3.2 | 0.00 | 0.46 | 0.46 | 84 | 1008.2 |
| 20260506234555 | 19 | 0 | 0.0 | 3.2 | 0.00 | 0.46 | 0.46 | 83 | 1008.1 |
| 20260506234049 | 19 | 0 | 0.0 | 3.2 | 0.00 | 0.46 | 0.46 | 83 | 1008.2 |
| 20260506233550 | 19 | 0 | 0.0 | 3.2 | 0.00 | 0.46 | 0.46 | 83 | 1008.1 |
| 20260506233059 | 19 | 0 | 0.0 | 1.6 | 0.00 | 0.46 | 0.46 | 83 | 1008.1 |
| 20260506232550 | 19 | 335 | 0.0 | 1.6 | 0.00 | 0.46 | 0.46 | 83 | 1008.0 |
| 20260506232048 | 20 | 0 | 0.0 | 3.2 | 0.00 | 0.46 | 0.46 | 83 | 1007.9 |
| 20260506231557 | 20 | 0 | 0.0 | 3.2 | 0.00 | 0.46 | 0.46 | 83 | 1008.0 |
| 20260506231050 | 20 | 355 | 0.0 | 1.6 | 0.00 | 0.46 | 0.46 | 82 | 1008.0 |
| 20260506230549 | 20 | 0 | 0.0 | 0.0 | 0.00 | 0.46 | 0.46 | 82 | 1008.0 |
| 20260506230054 | 20 | 0 | 0.0 | 3.2 | 0.00 | 0.46 | 0.46 | 82 | 1008.0 |
| 20260506225550 | 20 | 0 | 0.0 | 3.2 | 0.00 | 0.46 | 0.46 | 82 | 1008.0 |
| 20260506225053 | 20 | 0 | 0.0 | 0.0 | 0.00 | 0.46 | 0.46 | 82 | 1008.0 |
| 20260506224556 | 20 | 0 | 0.0 | 0.0 | 0.00 | 0.46 | 0.46 | 82 | 1008.0 |
| 20260506224050 | 20 | 0 | 0.0 | 3.2 | 0.00 | 0.46 | 0.46 | 82 | 1008.0 |
| 20260506223549 | 20 | 0 | 0.0 | 3.2 | 0.00 | 0.46 | 0.46 | 82 | 1008.0 |
| 20260506223101 | 20 | 322 | 0.0 | 3.2 | 0.00 | 0.46 | 0.46 | 81 | 1008.0 |
| 20260506222550 | 20 | 0 | 0.0 | 8.0 | 0.00 | 0.46 | 0.46 | 81 | 1008.0 |
| 20260506222050 | 20 | 0 | 0.0 | 8.0 | 0.00 | 0.46 | 0.46 | 81 | 1008.0 |
| 20260506221600 | 20 | 9 | 0.0 | 8.0 | 0.00 | 0.46 | 0.46 | 81 | 1008.0 |
| 20260506221049 | 20 | 0 | 0.0 | 4.8 | 0.00 | 0.46 | 0.46 | 81 | 1008.0 |
| 20260506220549 | 20 | 330 | 0.0 | 3.2 | 0.00 | 0.46 | 0.46 | 81 | 1007.8 |
| 20260506220056 | 20 | 0 | 0.0 | 1.6 | 0.00 | 0.46 | 0.46 | 81 | 1007.9 |
| 20260506215551 | 20 | 0 | 0.0 | 3.2 | 0.00 | 0.46 | 0.46 | 81 | 1007.9 |
| 20260506215053 | 20 | 0 | 0.0 | 3.2 | 0.00 | 0.46 | 0.46 | 80 | 1008.0 |
| 20260506214601 | 20 | 0 | 0.0 | 3.2 | 0.00 | 0.46 | 0.46 | 80 | 1007.9 |
| 20260506214049 | 20 | 302 | 0.0 | 3.2 | 0.00 | 0.46 | 0.46 | 79 | 1007.9 |
| 20260506213549 | 20 | 0 | 0.0 | 8.0 | 0.00 | 0.46 | 0.46 | 79 | 1007.7 |
| 20260506213056 | 20 | 0 | 1.6 | 8.0 | 0.00 | 0.46 | 0.46 | 79 | 1007.6 |
| 20260506212550 | 20 | 0 | 0.0 | 4.8 | 0.00 | 0.46 | 0.46 | 78 | 1007.7 |
| 20260506212050 | 20 | 0 | 0.0 | 6.4 | 0.00 | 0.46 | 0.46 | 78 | 1007.6 |
| 20260506211555 | 21 | 120 | 0.0 | 6.4 | 0.00 | 0.46 | 0.46 | 78 | 1007.6 |
| 20260506211050 | 20 | 0 | 0.0 | 4.8 | 0.00 | 0.46 | 0.46 | 78 | 1007.6 |
| 20260506210551 | 20 | 189 | 0.0 | 8.0 | 0.00 | 0.46 | 0.46 | 79 | 1007.4 |
| 20260506210057 | 20 | 0 | 0.0 | 8.0 | 0.00 | 0.46 | 0.46 | 79 | 1007.5 |
| 20260506205549 | 20 | 0 | 1.6 | 6.4 | 0.00 | 0.46 | 0.46 | 78 | 1007.4 |
| 20260506205049 | 20 | 0 | 0.0 | 6.4 | 0.00 | 0.46 | 0.46 | 78 | 1007.4 |
| 20260506204551 | 20 | 77 | 0.0 | 6.4 | 0.00 | 0.46 | 0.46 | 78 | 1007.4 |
| 20260506204052 | 20 | 106 | 1.6 | 8.0 | 0.00 | 0.46 | 0.46 | 78 | 1007.5 |
| 20260506203550 | 21 | 152 | 0.0 | 8.0 | 0.00 | 0.46 | 0.46 | 78 | 1007.6 |
| 20260506203049 | 21 | 155 | 1.6 | 12.9 | 0.00 | 0.46 | 0.46 | 77 | 1007.6 |
| 20260506202550 | 21 | 332 | 1.6 | 12.9 | 0.00 | 0.46 | 0.46 | 76 | 1007.5 |
| 20260506202050 | 21 | 0 | 0.0 | 12.9 | 0.00 | 0.46 | 0.46 | 76 | 1007.5 |
| 20260506201552 | 21 | 96 | 3.2 | 12.9 | 0.00 | 0.46 | 0.46 | 75 | 1007.5 |
| 20260506201049 | 21 | 318 | 0.0 | 8.0 | 0.00 | 0.46 | 0.46 | 76 | 1007.4 |
| 20260506200549 | 21 | 233 | 3.2 | 6.4 | 0.00 | 0.46 | 0.46 | 77 | 1007.4 |
| 20260506200056 | 21 | 148 | 0.0 | 8.0 | 0.00 | 0.46 | 0.46 | 77 | 1007.4 |
| 20260506195553 | 21 | 269 | 1.6 | 11.3 | 0.00 | 0.46 | 0.46 | 77 | 1007.4 |
| 20260506195050 | 21 | 130 | 1.6 | 11.3 | 0.00 | 0.46 | 0.46 | 77 | 1007.5 |
| 20260506194557 | 21 | 177 | 3.2 | 9.7 | 0.00 | 0.46 | 0.46 | 77 | 1007.4 |
| 20260506194051 | 21 | 304 | 0.0 | 6.4 | 0.00 | 0.46 | 0.46 | 80 | 1007.6 |
| 20260506193549 | 20 | 30 | 1.6 | 9.7 | 0.00 | 0.46 | 0.46 | 79 | 1007.5 |
| 20260506193056 | 20 | 132 | 0.0 | 9.7 | 0.00 | 0.46 | 0.46 | 79 | 1007.5 |
| 20260506192549 | 20 | 294 | 1.6 | 11.3 | 0.00 | 0.46 | 0.46 | 80 | 1007.7 |
| 20260506192054 | 20 | 72 | 1.6 | 11.3 | 0.00 | 0.46 | 0.46 | 81 | 1007.6 |
| 20260506191558 | 20 | 194 | 3.2 | 11.3 | 0.00 | 0.46 | 0.46 | 81 | 1007.6 |
| 20260506191050 | 20 | 141 | 1.6 | 11.3 | 0.00 | 0.46 | 0.46 | 81 | 1007.7 |
| 20260506190550 | 19 | 0 | 1.6 | 11.3 | 0.00 | 0.46 | 0.46 | 82 | 1007.8 |
| 20260506190058 | 19 | 298 | 1.6 | 11.3 | 0.00 | 0.46 | 0.46 | 82 | 1007.9 |
| 20260506185550 | 19 | 0 | 1.6 | 9.7 | 0.00 | 0.46 | 0.46 | 83 | 1008.1 |
| 20260506185050 | 18 | 326 | 3.2 | 9.7 | 0.00 | 0.46 | 0.46 | 83 | 1008.1 |
| 20260506184550 | 18 | 0 | 1.6 | 9.7 | 0.00 | 0.46 | 0.46 | 83 | 1008.1 |
| 20260506184050 | 18 | 293 | 1.6 | 17.7 | 0.00 | 0.46 | 0.46 | 83 | 1008.1 |
| 20260506183550 | 18 | 303 | 1.6 | 17.7 | 0.00 | 0.46 | 0.46 | 84 | 1008.0 |
| 20260506183100 | 18 | 179 | 0.0 | 12.9 | 0.00 | 0.46 | 0.46 | 84 | 1008.2 |
| 20260506182549 | 18 | 119 | 1.6 | 12.9 | 0.00 | 0.46 | 0.46 | 84 | 1008.3 |
| 20260506182049 | 18 | 193 | 4.8 | 12.9 | 0.00 | 0.46 | 0.46 | 84 | 1008.2 |
| 20260506181553 | 18 | 284 | 1.6 | 8.0 | 0.00 | 0.46 | 0.46 | 85 | 1008.1 |
| 20260506181050 | 18 | 0 | 1.6 | 8.0 | 0.00 | 0.46 | 0.46 | 85 | 1008.2 |
| 20260506180550 | 18 | 328 | 0.0 | 8.0 | 0.00 | 0.46 | 0.46 | 86 | 1008.3 |
| 20260506180058 | 17 | 143 | 1.6 | 11.3 | 0.00 | 0.46 | 0.46 | 86 | 1008.5 |
| 20260506175551 | 17 | 287 | 1.6 | 11.3 | 0.00 | 0.46 | 0.46 | 86 | 1008.5 |
| 20260506175050 | 17 | 183 | 3.2 | 12.9 | 0.00 | 0.46 | 0.46 | 87 | 1008.5 |
| 20260506174558 | 17 | 307 | 0.0 | 12.9 | 0.00 | 0.46 | 0.46 | 88 | 1008.5 |
| 20260506174050 | 17 | 186 | 3.2 | 12.9 | 0.00 | 0.46 | 0.46 | 88 | 1008.3 |
| 20260506173550 | 17 | 296 | 3.2 | 9.7 | 0.00 | 0.46 | 0.46 | 88 | 1008.5 |
| 20260506173126 | 17 | 302 | 1.6 | 9.7 | 0.00 | 0.46 | 0.46 | 89 | 1008.6 |
| 20260506172550 | 17 | 316 | 1.6 | 9.7 | 0.00 | 0.46 | 0.46 | 89 | 1008.5 |
| 20260506172050 | 17 | 0 | 1.6 | 12.9 | 0.00 | 0.46 | 0.46 | 89 | 1008.5 |
| 20260506171556 | 16 | 331 | 1.6 | 17.7 | 0.00 | 0.46 | 0.46 | 89 | 1008.5 |
| 20260506171050 | 16 | 282 | 3.2 | 17.7 | 0.00 | 0.46 | 0.46 | 89 | 1008.5 |
| 20260506170553 | 16 | 305 | 6.4 | 17.7 | 0.00 | 0.46 | 0.46 | 89 | 1008.6 |
| 20260506170053 | 16 | 167 | 1.6 | 12.9 | 0.00 | 0.46 | 0.46 | 90 | 1008.5 |
| 20260506165549 | 16 | 134 | 4.8 | 12.9 | 0.00 | 0.46 | 0.46 | 90 | 1008.6 |
| 20260506165050 | 16 | 143 | 3.2 | 14.5 | 0.00 | 0.46 | 0.46 | 90 | 1008.7 |
| 20260506164551 | 16 | 129 | 1.6 | 14.5 | 0.00 | 0.46 | 0.46 | 90 | 1008.8 |
| 20260506164049 | 16 | 129 | 3.2 | 14.5 | 0.00 | 0.46 | 0.46 | 90 | 1008.8 |
| 20260506163550 | 16 | 309 | 6.4 | 11.3 | 0.00 | 0.46 | 0.46 | 90 | 1008.7 |
| 20260506163102 | 16 | 163 | 1.6 | 17.7 | 0.00 | 0.46 | 0.46 | 91 | 1008.6 |
| 20260506162550 | 16 | 158 | 3.2 | 17.7 | 0.00 | 0.46 | 0.46 | 91 | 1008.6 |
| 20260506162050 | 16 | 0 | 3.2 | 17.7 | 0.00 | 0.46 | 0.46 | 91 | 1008.8 |
| 20260506161605 | 16 | 0 | 6.4 | 12.9 | 0.03 | 0.46 | 0.46 | 91 | 1009.1 |
| 20260506161052 | 16 | 141 | 4.8 | 16.1 | 0.03 | 0.46 | 0.46 | 91 | 1008.9 |
| 20260506160550 | 16 | 96 | 4.8 | 16.1 | 0.03 | 0.46 | 0.46 | 91 | 1008.9 |
| 20260506160054 | 16 | 174 | 6.4 | 16.1 | 0.05 | 0.46 | 0.46 | 91 | 1009.0 |
| 20260506155550 | 16 | 211 | 4.8 | 12.9 | 0.05 | 0.46 | 0.46 | 91 | 1008.9 |
| 20260506155050 | 16 | 270 | 1.6 | 12.9 | 0.05 | 0.46 | 0.46 | 91 | 1009.0 |
| 20260506154601 | 16 | 285 | 3.2 | 9.7 | 0.08 | 0.46 | 0.46 | 91 | 1009.0 |
| 20260506154050 | 16 | 0 | 3.2 | 11.3 | 0.10 | 0.46 | 0.46 | 92 | 1008.9 |
| 20260506153551 | 15 | 326 | 3.2 | 11.3 | 0.10 | 0.46 | 0.46 | 91 | 1008.9 |
| 20260506153055 | 15 | 160 | 3.2 | 14.5 | 0.13 | 0.46 | 0.46 | 91 | 1009.2 |
| 20260506152550 | 15 | 305 | 3.2 | 17.7 | 0.13 | 0.46 | 0.46 | 91 | 1009.3 |
| 20260506152052 | 15 | 184 | 6.4 | 19.3 | 0.15 | 0.46 | 0.46 | 91 | 1009.4 |
| 20260506151553 | 15 | 165 | 6.4 | 19.3 | 0.13 | 0.43 | 0.43 | 91 | 1009.4 |
| 20260506151050 | 15 | 298 | 3.2 | 12.9 | 0.15 | 0.43 | 0.43 | 91 | 1009.7 |
| 20260506150550 | 15 | 312 | 3.2 | 12.9 | 0.18 | 0.43 | 0.43 | 91 | 1009.8 |
| 20260506145550 | 15 | 138 | 4.8 | 12.9 | 0.18 | 0.41 | 0.41 | 91 | 1009.7 |
| 20260506145054 | 16 | 108 | 3.2 | 16.1 | 0.18 | 0.41 | 0.41 | 91 | 1009.6 |
| 20260506144609 | 16 | 0 | 1.6 | 16.1 | 0.18 | 0.38 | 0.38 | 91 | 1009.6 |
| 20260506144050 | 16 | 0 | 1.6 | 11.3 | 0.18 | 0.36 | 0.36 | 91 | 1009.8 |
| 20260506143550 | 16 | 8 | 3.2 | 11.3 | 0.18 | 0.36 | 0.36 | 91 | 1009.7 |
| 20260506143055 | 16 | 341 | 1.6 | 9.7 | 0.18 | 0.33 | 0.33 | 91 | 1009.5 |
| 20260506142552 | 16 | 109 | 3.2 | 11.3 | 0.23 | 0.33 | 0.33 | 91 | 1009.4 |
| 20260506142050 | 16 | 283 | 1.6 | 11.3 | 0.23 | 0.30 | 0.30 | 90 | 1009.3 |
| 20260506141555 | 16 | 16 | 1.6 | 12.9 | 0.25 | 0.30 | 0.30 | 91 | 1009.5 |
| 20260506141053 | 16 | 0 | 1.6 | 12.9 | 0.23 | 0.28 | 0.28 | 90 | 1009.6 |
| 20260506140551 | 16 | 35 | 1.6 | 9.7 | 0.20 | 0.25 | 0.25 | 90 | 1009.4 |
| 20260506140110 | 16 | 132 | 0.0 | 8.0 | 0.23 | 0.25 | 0.25 | 90 | 1009.7 |
| 20260506135551 | 16 | 331 | 0.0 | 6.4 | 0.20 | 0.23 | 0.23 | 90 | 1009.7 |
| 20260506135051 | 16 | 170 | 1.6 | 8.0 | 0.20 | 0.20 | 0.20 | 89 | 1010.0 |
| 20260506134554 | 16 | 147 | 1.6 | 8.0 | 0.20 | 0.20 | 0.20 | 89 | 1010.1 |
| 20260506134050 | 16 | 132 | 0.0 | 9.7 | 0.18 | 0.18 | 0.18 | 88 | 1010.1 |
| 20260506133550 | 16 | 147 | 3.2 | 9.7 | 0.18 | 0.18 | 0.18 | 88 | 1009.9 |
| 20260506133119 | 16 | 274 | 0.0 | 6.4 | 0.15 | 0.15 | 0.15 | 88 | 1009.9 |
| 20260506132554 | 16 | 286 | 1.6 | 6.4 | 0.10 | 0.10 | 0.10 | 87 | 1009.9 |
| 20260506132050 | 16 | 0 | 1.6 | 8.0 | 0.08 | 0.08 | 0.08 | 86 | 1009.8 |
| 20260506131551 | 16 | 0 | 1.6 | 8.0 | 0.05 | 0.05 | 0.05 | 85 | 1009.9 |
| 20260506131053 | 16 | 0 | 1.6 | 11.3 | 0.05 | 0.05 | 0.05 | 85 | 1009.8 |
| 20260506130550 | 17 | 119 | 1.6 | 11.3 | 0.05 | 0.05 | 0.05 | 84 | 1009.7 |
| 20260506130134 | 17 | 88 | 1.6 | 8.0 | 0.03 | 0.03 | 0.03 | 83 | 1009.5 |
| 20260506125549 | 17 | 7 | 1.6 | 8.0 | 0.03 | 0.03 | 0.03 | 83 | 1009.3 |
| 20260506125049 | 17 | 64 | 1.6 | 8.0 | 0.00 | 0.00 | 0.00 | 82 | 1009.6 |
| 20260506124553 | 17 | 316 | 0.0 | 9.7 | 0.00 | 0.00 | 0.00 | 82 | 1009.5 |
| 20260506124049 | 17 | 10 | 3.2 | 9.7 | 0.00 | 0.00 | 0.00 | 81 | 1009.6 |
| 20260506123552 | 17 | 279 | 1.6 | 8.0 | 0.00 | 0.00 | 0.00 | 81 | 1009.6 |
| 20260506123053 | 17 | 176 | 0.0 | 8.0 | 0.00 | 0.00 | 0.00 | 82 | 1009.7 |
| 20260506122551 | 17 | 0 | 0.0 | 8.0 | 0.00 | 0.00 | 0.00 | 81 | 1009.9 |
| 20260506122050 | 17 | 313 | 1.6 | 14.5 | 0.00 | 0.00 | 0.00 | 80 | 1010.0 |
| 20260506121556 | 17 | 154 | 0.0 | 14.5 | 0.00 | 0.00 | 0.00 | 80 | 1010.1 |
| 20260506121051 | 17 | 134 | 3.2 | 14.5 | 0.00 | 0.00 | 0.00 | 78 | 1010.0 |
| 20260506120551 | 18 | 165 | 1.6 | 9.7 | 0.00 | 0.00 | 0.00 | 77 | 1010.1 |
| 20260506120100 | 18 | 200 | 1.6 | 9.7 | 0.00 | 0.00 | 0.00 | 76 | 1010.0 |
| 20260506115550 | 18 | 189 | 1.6 | 8.0 | 0.00 | 0.00 | 0.00 | 76 | 1010.0 |
| 20260506115050 | 18 | 293 | 3.2 | 8.0 | 0.00 | 0.00 | 0.00 | 75 | 1009.9 |
| 20260506114601 | 18 | 187 | 3.2 | 20.9 | 0.00 | 0.00 | 0.00 | 75 | 1009.9 |
| 20260506114050 | 18 | 165 | 3.2 | 20.9 | 0.00 | 0.00 | 0.00 | 75 | 1009.7 |
| 20260506113549 | 18 | 120 | 4.8 | 20.9 | 0.00 | 0.00 | 0.00 | 75 | 1009.5 |
| 20260506113054 | 18 | 167 | 3.2 | 12.9 | 0.00 | 0.00 | 0.00 | 75 | 1009.5 |
| 20260506112551 | 18 | 254 | 3.2 | 12.9 | 0.00 | 0.00 | 0.00 | 75 | 1009.5 |
| 20260506112052 | 18 | 322 | 3.2 | 14.5 | 0.00 | 0.00 | 0.00 | 75 | 1009.5 |
| 20260506111557 | 18 | 114 | 1.6 | 14.5 | 0.00 | 0.00 | 0.00 | 75 | 1009.4 |
| 20260506111051 | 18 | 31 | 3.2 | 14.5 | 0.00 | 0.00 | 0.00 | 75 | 1009.2 |
| 20260506110551 | 18 | 78 | 3.2 | 12.9 | 0.00 | 0.00 | 0.00 | 75 | 1009.4 |
| 20260506110055 | 18 | 163 | 3.2 | 16.1 | 0.00 | 0.00 | 0.00 | 75 | 1009.3 |
| 20260506105550 | 18 | 0 | 6.4 | 16.1 | 0.00 | 0.00 | 0.00 | 75 | 1009.2 |
| 20260506105049 | 18 | 0 | 1.6 | 14.5 | 0.00 | 0.00 | 0.00 | 75 | 1009.2 |
| 20260506104600 | 18 | 161 | 4.8 | 14.5 | 0.00 | 0.00 | 0.00 | 75 | 1009.3 |
| 20260506104049 | 18 | 279 | 1.6 | 11.3 | 0.00 | 0.00 | 0.00 | 75 | 1009.1 |
| 20260506103550 | 18 | 121 | 1.6 | 9.7 | 0.00 | 0.00 | 0.00 | 75 | 1009.1 |
| 20260506103054 | 18 | 329 | 1.6 | 12.9 | 0.00 | 0.00 | 0.00 | 75 | 1009.0 |
| 20260506102551 | 18 | 307 | 3.2 | 12.9 | 0.00 | 0.00 | 0.00 | 75 | 1009.0 |
| 20260506102052 | 18 | 63 | 3.2 | 14.5 | 0.00 | 0.00 | 0.00 | 75 | 1009.0 |
| 20260506101552 | 18 | 141 | 1.6 | 16.1 | 0.00 | 0.00 | 0.00 | 75 | 1009.0 |
| 20260506101049 | 18 | 182 | 1.6 | 16.1 | 0.00 | 0.00 | 0.00 | 75 | 1009.0 |
| 20260506100549 | 18 | 160 | 3.2 | 14.5 | 0.00 | 0.00 | 0.00 | 75 | 1009.0 |
| 20260506100105 | 18 | 232 | 1.6 | 19.3 | 0.00 | 0.00 | 0.00 | 75 | 1009.0 |
| 20260506095551 | 18 | 233 | 1.6 | 19.3 | 0.00 | 0.00 | 0.00 | 74 | 1009.0 |
| 20260506095050 | 18 | 211 | 3.2 | 12.9 | 0.00 | 0.00 | 0.00 | 74 | 1009.0 |
| 20260506094603 | 18 | 314 | 4.8 | 16.1 | 0.00 | 0.00 | 0.00 | 74 | 1009.1 |
| 20260506094050 | 18 | 165 | 3.2 | 16.1 | 0.00 | 0.00 | 0.00 | 74 | 1009.1 |
| 20260506093550 | 18 | 303 | 3.2 | 11.3 | 0.00 | 0.00 | 0.00 | 74 | 1009.0 |
| 20260506093053 | 18 | 288 | 3.2 | 11.3 | 0.00 | 0.00 | 0.00 | 73 | 1009.0 |
| 20260506092551 | 18 | 194 | 3.2 | 11.3 | 0.00 | 0.00 | 0.00 | 73 | 1009.0 |
| 20260506092050 | 18 | 98 | 3.2 | 11.3 | 0.00 | 0.00 | 0.00 | 73 | 1009.1 |
| 20260506091552 | 18 | 281 | 1.6 | 11.3 | 0.00 | 0.00 | 0.00 | 72 | 1009.0 |
| 20260506091049 | 18 | 99 | 0.0 | 14.5 | 0.00 | 0.00 | 0.00 | 72 | 1009.0 |
| 20260506090549 | 18 | 204 | 4.8 | 19.3 | 0.00 | 0.00 | 0.00 | 71 | 1009.1 |
| 20260506090053 | 18 | 108 | 4.8 | 19.3 | 0.00 | 0.00 | 0.00 | 71 | 1009.0 |
| 20260506085550 | 18 | 143 | 3.2 | 17.7 | 0.00 | 0.00 | 0.00 | 71 | 1009.2 |
| 20260506085053 | 19 | 117 | 3.2 | 17.7 | 0.00 | 0.00 | 0.00 | 71 | 1009.3 |
| 20260506084553 | 19 | 188 | 4.8 | 11.3 | 0.00 | 0.00 | 0.00 | 70 | 1009.2 |
| 20260506084050 | 19 | 149 | 4.8 | 11.3 | 0.00 | 0.00 | 0.00 | 70 | 1009.2 |
| 20260506083549 | 19 | 238 | 3.2 | 12.9 | 0.00 | 0.00 | 0.00 | 69 | 1009.2 |
| 20260506083059 | 19 | 184 | 1.6 | 14.5 | 0.00 | 0.00 | 0.00 | 69 | 1009.2 |
| 20260506082550 | 19 | 150 | 4.8 | 14.5 | 0.00 | 0.00 | 0.00 | 69 | 1009.3 |
| 20260506082050 | 19 | 174 | 1.6 | 9.7 | 0.00 | 0.00 | 0.00 | 69 | 1009.2 |
| 20260506081606 | 19 | 125 | 1.6 | 9.7 | 0.00 | 0.00 | 0.00 | 68 | 1009.2 |
| 20260506081050 | 19 | 0 | 1.6 | 17.7 | 0.00 | 0.00 | 0.00 | 68 | 1009.0 |
| 20260506080552 | 19 | 323 | 1.6 | 17.7 | 0.00 | 0.00 | 0.00 | 68 | 1009.0 |